Roxbury, Maine
Current Conditions -  °F | °C
As of 12:52 AM on Saturday 25 Oct 2014 (Local Time) from KBML Reporting Station
Broken Clouds Broken Clouds  
Wind Chill: 41°   Ceiling: 5500
Heat Index: 41°   Visibility: 10mi
Dew Point: 35°   Wind: 3mph
Humidity: 79%   Direction: 10°N
Pressure: 29.75"   Gusts: NA
Location:  44.67°N, 70.59°W
Report Text: KBML 250452Z AUTO 01003KT 10SM BKN055 05/02 A2975 RMK AO2 SLP084 T00500017 400830044
Loading
Personal Weather Stations






























Interactive Weather Map
Tropical Storm Tracking
New forecast layout! Learn more

10-Day Weather Forecast

Advertisements
Track Severe Weather on mobile